PWSweather.com
Personal Weather Stations
Station Observations
KVAGLENALL
West Henrico, Glen Allen, VA 23060-6503

West HenricoGlen Allen, VA 23060-6503

Lat: 37.6554, Lon: -77.5693

Elevation: 273

Station Type: Davis Vantage Pro II

www.glenallenweather.com

High Low Average
Temperature 76.4°F24.7°C 56.7°F13.7°C 67.6°F19.8°C
Dew Point 62.4°F16.9°C 55.0°F12.8°C 58.9°F14.9°C
Winds 9.0 mph 14.5 kmh Calm Calm 2.0 mph SE3.2 kmh SE
Wind Gusts 11.1 mph17.9 kmh -- 5.0 mph8.0 kmh
Humidity 94% 54% 75%
Pressure 30.16 in1021.3 mb 29.95 in1014.2 mb -
Precipitation 0.00 in0.0 mm - -
Hour Temp Dew Point Humidity Winds Wind Gusts Pressure Precip Precip Rate Daily Precip Total
12:30 AM 59.4°F15.2°C 57.1°F13.9°C 92% Calm Calm -- 30.11 in1019.6 mb 0.00 in0.0 mm 0.00 in0.0 mm 0.00 in0.0 mm
01:30 AM 59.0°F15.0°C 56.7°F13.7°C 92% Calm Calm -- 30.11 in1019.6 mb 0.00 in0.0 mm 0.00 in0.0 mm 0.00 in0.0 mm
02:30 AM 58.1°F14.5°C 55.8°F13.2°C 92% Calm Calm -- 30.11 in1019.6 mb 0.00 in0.0 mm 0.00 in0.0 mm 0.00 in0.0 mm
03:30 AM 56.7°F13.7°C 55.0°F12.8°C 94% Calm Calm -- 30.11 in1019.6 mb 0.00 in0.0 mm 0.00 in0.0 mm 0.00 in0.0 mm
04:30 AM 57.1°F13.9°C 55.4°F13.0°C 94% Calm Calm -- 30.11 in1019.6 mb 0.00 in0.0 mm 0.00 in0.0 mm 0.00 in0.0 mm
05:30 AM 58.0°F14.4°C 55.4°F13.0°C 91% 3.0 mph NNE4.8 kmh NNE 3.0 mph4.8 kmh 30.12 in1020.0 mb 0.00 in0.0 mm 0.00 in0.0 mm 0.00 in0.0 mm
06:30 AM 61.7°F16.5°C 58.1°F14.5°C 88% 5.0 mph NE8.0 kmh NE 6.1 mph9.8 kmh 30.15 in1021.0 mb 0.00 in0.0 mm 0.00 in0.0 mm 0.00 in0.0 mm
07:00 AM 63.4°F17.4°C 59.2°F15.1°C 86% 1.0 mph NE1.6 kmh NE 3.0 mph4.8 kmh 30.15 in1021.0 mb 0.00 in0.0 mm 0.00 in0.0 mm 0.00 in0.0 mm
07:15 AM 65.0°F18.3°C 60.1°F15.6°C 84% 1.0 mph E1.6 kmh E 7.1 mph11.4 kmh 30.15 in1021.0 mb 0.00 in0.0 mm 0.00 in0.0 mm 0.00 in0.0 mm
07:30 AM 66.5°F19.2°C 60.5°F15.8°C 81% 1.0 mph ENE1.6 kmh ENE 4.0 mph6.4 kmh 30.15 in1021.0 mb 0.00 in0.0 mm 0.00 in0.0 mm 0.00 in0.0 mm
08:30 AM 71.5°F21.9°C 61.2°F16.2°C 70% 4.0 mph ESE6.4 kmh ESE 10.1 mph16.3 kmh 30.16 in1021.3 mb 0.00 in0.0 mm 0.00 in0.0 mm 0.00 in0.0 mm
09:30 AM 73.1°F22.8°C 61.5°F16.4°C 67% 4.0 mph E6.4 kmh E 8.1 mph13.0 kmh 30.15 in1021.0 mb 0.00 in0.0 mm 0.00 in0.0 mm 0.00 in0.0 mm
10:30 AM 72.9°F22.7°C 60.4°F15.8°C 65% 9.0 mph E14.5 kmh E 10.1 mph16.3 kmh 30.15 in1021.0 mb 0.00 in0.0 mm 0.00 in0.0 mm 0.00 in0.0 mm
11:30 AM 74.5°F23.6°C 62.4°F16.9°C 66% 7.0 mph SE11.3 kmh SE 10.1 mph16.3 kmh 30.14 in1020.7 mb 0.00 in0.0 mm 0.00 in0.0 mm 0.00 in0.0 mm
12:30 PM 76.2°F24.6°C 60.3°F15.7°C 58% 3.0 mph SE4.8 kmh SE 9.1 mph14.6 kmh 30.12 in1020.0 mb 0.00 in0.0 mm 0.00 in0.0 mm 0.00 in0.0 mm
01:30 PM 75.5°F24.2°C 60.2°F15.7°C 59% 4.0 mph E6.4 kmh E 7.1 mph11.4 kmh 30.09 in1019.0 mb 0.00 in0.0 mm 0.00 in0.0 mm 0.00 in0.0 mm
02:30 PM 76.4°F24.7°C 60.0°F15.6°C 57% 5.0 mph SE8.0 kmh SE 11.1 mph17.9 kmh 30.07 in1018.3 mb 0.00 in0.0 mm 0.00 in0.0 mm 0.00 in0.0 mm
03:30 PM 73.9°F23.3°C 56.2°F13.4°C 54% 2.0 mph E3.2 kmh E 8.1 mph13.0 kmh 30.06 in1017.9 mb 0.00 in0.0 mm 0.00 in0.0 mm 0.00 in0.0 mm
04:30 PM 73.4°F23.0°C 57.2°F14.0°C 57% 2.0 mph ENE3.2 kmh ENE 8.1 mph13.0 kmh 30.03 in1016.9 mb 0.00 in0.0 mm 0.00 in0.0 mm 0.00 in0.0 mm
05:30 PM 72.1°F22.3°C 58.8°F14.9°C 63% 1.0 mph E1.6 kmh E 3.0 mph4.8 kmh 30.03 in1016.9 mb 0.00 in0.0 mm 0.00 in0.0 mm 0.00 in0.0 mm
06:30 PM 70.4°F21.3°C 61.7°F16.5°C 74% Calm Calm 1.0 mph1.6 kmh 30.02 in1016.6 mb 0.00 in0.0 mm 0.00 in0.0 mm 0.00 in0.0 mm
07:30 PM 69.8°F21.0°C 59.5°F15.3°C 70% 1.0 mph E1.6 kmh E 3.0 mph4.8 kmh 30.02 in1016.6 mb 0.00 in0.0 mm 0.00 in0.0 mm 0.00 in0.0 mm
08:30 PM 69.0°F20.6°C 58.5°F14.7°C 69% 1.0 mph E1.6 kmh E 4.0 mph6.4 kmh 30.00 in1015.9 mb 0.00 in0.0 mm 0.00 in0.0 mm 0.00 in0.0 mm
09:30 PM 68.3°F20.2°C 58.6°F14.8°C 71% 7.0 mph E11.3 kmh E 8.1 mph13.0 kmh 29.97 in1014.9 mb 0.00 in0.0 mm 0.00 in0.0 mm 0.00 in0.0 mm
10:30 PM 67.6°F19.8°C 62.0°F16.7°C 82% 1.0 mph N1.6 kmh N 3.0 mph4.8 kmh 29.95 in1014.2 mb 0.02 in0.5 mm 0.00 in0.0 mm 0.02 in0.5 mm